« Back
NWS Peachtree City, Ga » Text Product » ATL Terminal Aerodrome Forecast


Printer-friendly Version
Current Version              Previous Versions:   1  2  3  4  5  6  7  8  9  

Terminal Aerodrome Forecast

792
FTUS42 KFFC 252320
TAFATL
TAF
KATL 252320Z 2600/2706 35009KT P6SM FEW060 SCT250
     FM260500 05007KT P6SM FEW020
     FM261000 07010KT P6SM SCT008 BKN015
     FM261400 09012KT P6SM BKN035
     FM261600 10010KT P6SM SCT040 PROB30 2619/2624 5SM -TSRA
      BKN035CB
     FM270200 09005KT P6SM SCT070 BKN250=

USA.gov is the U.S. government's official web portal to all federal, state and local government web resources and services.